Aurora, Oregon
Current Conditions -  °F | °C
As of 5:29 AM on Saturday 25 Oct 2014 (Local Time) from KUAO Reporting Station
Light Rain Light Rain  
Wind Chill: 44°   Ceiling: 200
Heat Index: 49°   Visibility: 8mi
Dew Point: 49°   Wind: 12mph
Humidity: 100%   Direction: 230°SW
Pressure: 29.6"   Gusts: 23mph
Location:  45.23°N, 122.76°W
Report Text: KUAO 251229Z AUTO 23010G20KT 8SM -RA BKN002 OVC023 09/09 A2960 RMK AO2 RAB28 P0000 T00940094
Loading
Personal Weather Stations






























Interactive Weather Map
Tropical Storm Tracking
New forecast layout! Learn more

10-Day Weather Forecast

Advertisements
Track Severe Weather on mobile